Huvudsida
METAR-TAF:

METAR-TAF

Flygplatser :

Tbilisis internationella flygplats

Tbilisi, Georgien

latitud: 41-40-09N, longitud: 044-57-17E, höjd: 495 m

Aktuellt väderrapport

Denna rapport gjordes för 19 minuter sedan, klockan 09:00 UTC
Vind 20 kt från nordväst
Temperatur 28°C
Fuktighet 32%
Tryck 1011 hPa
Sikt 10 km eller mer
Inga moln under 1 500 m eller inga cumulonimbus

METAR: UGTB 220900Z 31020KT CAVOK 28/10 Q1011 NOSIG

Tid: 13:19 (09:19 UTC)

Väderprognos

Denna rapport gjordes för 4 timmar och 19 minuter sedan, klockan 05:00 UTC
Prognos gäller från 22 kl. 06 UTC till 23 kl. 06 UTC
Vind 20 kt från nordväst
Sikt 10 km eller mer
Inga moln under 1 500 m eller inga cumulonimbus
Blir
från 22 kl. 17 UTC till 22 kl. 19 UTC
Vind 10 kt från nord/nordväst
Blir
från 22 kl. 23 UTC till 23 kl. 01 UTC
Vind 2 kt varierande vindriktning
Spridda moln på en höjd av 3500 ft

TAF: UGTB 220500Z 2206/2306 31020KT CAVOK TX29/2212Z TN17/2302Z BECMG 2217/2219 33010KT BECMG 2223/2301 VRB02KT SCT035

Aktuella väderrapporter och prognoser från 4000 flygplatser (METAR- och TAF-rapporter).

De tillgängliga stationerna syns som gula och röda prickar på kartan.

För musen över prickarna för att se namnen på stationerna.

Klicka sedan för att få väderrapporter och prognoser.

För att ändra kartan: Klicka på de gröna knapparna med ett svart kors på för att zooma in; den gröna knappen med ett streck på för att zooma ut; eller på de gröna pilarna för angränsande kartor.


METAR-TAF: